Time;durP1;ratioP1;P1;durP2;ratioP2;P2;SDS_P1;SDS_P2;PMS_P1;PMS_P2;Temp;Humidity;BMP_temperature;BMP_pressure;BME280_temperature;BME280_humidity;BME280_pressure;Samples;Min_cycle;Max_cycle;Signal;HPM_P1;HPM_P2
2021/10/23 00:02:03;;;;;;;7.20;1.50;;;;;;;4.27;100.00;100816.22;4935492;29;20106;-83
2021/10/23 00:04:32;;;;;;;9.17;2.97;;;;;;;4.32;100.00;100822.38;4922757;28;20498;-84
2021/10/23 00:07:01;;;;;;;7.03;1.57;;;;;;;4.30;100.00;100829.34;4932597;29;20051;-84
2021/10/23 00:09:28;;;;;;;6.80;2.43;;;;;;;4.27;100.00;100834.53;4902304;29;20580;-83
2021/10/23 00:11:55;;;;;;;4.70;1.27;;;;;;;4.26;100.00;100835.41;4919665;29;20511;-83
2021/10/23 00:14:22;;;;;;;5.40;1.63;;;;;;;4.38;100.00;100837.25;4915378;29;20411;-84
2021/10/23 00:16:48;;;;;;;3.93;1.57;;;;;;;4.29;100.00;100847.59;4913324;29;20051;-84
2021/10/23 00:19:15;;;;;;;6.70;2.00;;;;;;;4.30;100.00;100834.56;4916512;29;20094;-83
2021/10/23 00:21:41;;;;;;;4.30;1.53;;;;;;;4.31;100.00;100851.13;4928951;29;20384;-86
2021/10/23 00:24:08;;;;;;;3.43;1.53;;;;;;;4.35;100.00;100856.38;4915933;29;20039;-84
2021/10/23 00:26:37;;;;;;;7.90;3.20;;;;;;;4.42;100.00;100857.31;4917783;29;20043;-86
2021/10/23 00:29:04;;;;;;;7.67;1.83;;;;;;;4.37;100.00;100852.06;4898965;29;20507;-85
2021/10/23 00:31:30;;;;;;;7.07;1.40;;;;;;;4.33;100.00;100862.47;4915573;29;20707;-85
2021/10/23 00:33:57;;;;;;;7.03;1.50;;;;;;;4.28;100.00;100869.41;4926644;29;20361;-86
2021/10/23 00:36:23;;;;;;;7.10;3.00;;;;;;;4.35;100.00;100871.22;4904015;29;20047;-86
2021/10/23 00:38:50;;;;;;;5.77;1.80;;;;;;;4.42;100.00;100873.00;4900207;29;20070;-85
2021/10/23 00:41:17;;;;;;;4.07;1.40;;;;;;;4.31;100.00;100879.91;4898179;29;20051;-87
2021/10/23 00:43:45;;;;;;;7.77;2.33;;;;;;;4.34;100.00;100867.72;4917864;29;20047;-86
2021/10/23 00:46:12;;;;;;;9.73;1.50;;;;;;;4.39;100.00;100878.22;4920330;29;20061;-86
2021/10/23 00:48:40;;;;;;;4.03;1.20;;;;;;;4.41;100.00;100873.88;4919374;29;20050;-86
2021/10/23 00:51:09;;;;;;;4.33;1.43;;;;;;;4.42;100.00;100884.34;4914734;29;20054;-86
2021/10/23 00:53:37;;;;;;;7.97;1.67;;;;;;;4.40;100.00;100888.69;4915739;29;20343;-85
2021/10/23 00:56:04;;;;;;;4.37;1.80;;;;;;;4.35;100.00;100890.38;4933075;29;20454;-86
2021/10/23 00:58:36;;;;;;;4.17;1.30;;;;;;;4.43;100.00;100893.94;4926136;29;20055;-86
2021/10/23 01:01:08;;;;;;;6.00;1.40;;;;;;;4.34;100.00;100895.63;4929941;29;20713;-87
2021/10/23 01:03:38;;;;;;;5.47;1.90;;;;;;;4.38;100.00;100895.66;4915580;29;20051;-86
2021/10/23 01:06:06;;;;;;;4.57;1.77;;;;;;;4.33;100.00;100892.13;4949259;29;20043;-86
2021/10/23 01:08:33;;;;;;;6.67;1.77;;;;;;;4.32;100.00;100886.88;4919818;29;20163;-86
2021/10/23 01:11:00;;;;;;;4.70;1.43;;;;;;;4.27;100.00;100902.53;4930076;29;20071;-86
2021/10/23 01:13:27;;;;;;;7.27;1.90;;;;;;;4.31;100.00;100901.72;4918218;29;20058;-86
2021/10/23 01:15:54;;;;;;;7.70;1.83;;;;;;;4.29;100.00;100898.22;4917931;29;20036;-85
2021/10/23 01:18:20;;;;;;;6.07;2.13;;;;;;;4.36;100.00;100906.97;4915778;29;20050;-86
2021/10/23 01:20:47;;;;;;;11.40;2.03;;;;;;;4.36;100.00;100906.97;4925413;29;20520;-85
2021/10/23 01:23:13;;;;;;;8.60;2.50;;;;;;;4.39;100.00;100907.88;4938287;29;20093;-86
2021/10/23 01:25:40;;;;;;;8.47;2.10;;;;;;;4.42;100.00;100920.09;4936836;29;20035;-85
2021/10/23 01:28:07;;;;;;;6.43;2.13;;;;;;;4.41;100.00;100921.84;4920453;29;20043;-86
2021/10/23 01:30:34;;;;;;;3.27;1.40;;;;;;;4.38;100.00;100921.81;4900885;29;20047;-86
2021/10/23 01:33:00;;;;;;;5.27;1.77;;;;;;;4.44;100.00;100926.22;4928285;29;20570;-86
2021/10/23 01:35:28;;;;;;;8.20;1.70;;;;;;;4.45;100.00;100928.84;4906801;29;20495;-85
2021/10/23 01:37:55;;;;;;;6.73;1.80;;;;;;;4.42;100.00;100939.28;4944009;29;20101;-85
2021/10/23 01:40:29;;;;;;;8.97;1.80;;;;;;;4.40;100.00;100937.53;4924841;29;20047;-88
2021/10/23 01:42:56;;;;;;;7.87;1.57;;;;;;;4.47;100.00;100940.22;5045316;23;20044;-81
2021/10/23 01:45:22;;;;;;;7.00;2.13;;;;;;;4.51;100.00;100947.22;4941426;29;20710;-80
2021/10/23 01:47:49;;;;;;;5.23;1.70;;;;;;;4.40;100.00;100955.84;4939087;29;20039;-79
2021/10/23 01:50:21;;;;;;;11.23;1.73;;;;;;;4.49;100.00;100961.16;4924030;29;20076;-80
2021/10/23 01:52:51;;;;;;;5.60;1.30;;;;;;;4.44;100.00;100953.25;4946653;29;20043;-81
2021/10/23 01:55:18;;;;;;;8.77;2.80;;;;;;;4.44;100.00;100962.84;4931448;29;20031;-80
2021/10/23 01:57:46;;;;;;;8.03;2.43;;;;;;;4.44;100.00;100963.72;4929808;29;20410;-80
2021/10/23 02:00:14;;;;;;;6.50;1.93;;;;;;;4.44;100.00;100974.19;4956096;29;20102;-80
2021/10/23 02:02:41;;;;;;;8.53;1.70;;;;;;;4.49;100.00;100975.13;4935504;28;20058;-80
2021/10/23 02:05:09;;;;;;;8.63;2.83;;;;;;;4.39;100.00;100975.03;4945456;29;20044;-80
2021/10/23 02:07:36;;;;;;;5.57;1.90;;;;;;;4.38;100.00;100995.06;4930750;29;20043;-80
2021/10/23 02:10:04;;;;;;;5.47;1.60;;;;;;;4.33;100.00;100991.50;4943107;29;20043;-80
2021/10/23 02:12:31;;;;;;;6.57;2.33;;;;;;;4.42;100.00;100995.97;4945722;29;20074;-81
2021/10/23 02:14:57;;;;;;;6.27;1.77;;;;;;;4.40;100.00;100998.56;4950926;29;20047;-81
2021/10/23 02:17:25;;;;;;;8.47;1.53;;;;;;;4.38;100.00;100995.06;4921366;29;20051;-80
2021/10/23 02:19:52;;;;;;;6.50;1.90;;;;;;;4.39;100.00;100995.94;4906526;29;20035;-81
2021/10/23 02:22:18;;;;;;;6.70;2.03;;;;;;;4.30;100.00;100991.50;4939217;29;20043;-81
2021/10/23 02:24:45;;;;;;;4.90;1.67;;;;;;;4.39;100.00;100999.44;4923798;29;20063;-80
2021/10/23 02:27:11;;;;;;;6.33;2.23;;;;;;;4.32;100.00;100994.13;4942648;29;20043;-81
2021/10/23 02:29:38;;;;;;;6.40;2.13;;;;;;;4.38;100.00;101005.53;4936423;28;20109;-80
2021/10/23 02:32:05;;;;;;;8.33;1.67;;;;;;;4.32;100.00;101007.19;4918394;29;20054;-80
2021/10/23 02:34:32;;;;;;;5.67;2.07;;;;;;;4.32;100.00;101005.47;4927809;29;20039;-80
2021/10/23 02:36:58;;;;;;;7.77;2.27;;;;;;;4.23;100.00;101006.25;4932228;29;20673;-80
2021/10/23 02:39:25;;;;;;;11.07;1.93;;;;;;;4.21;100.00;101013.19;4914540;29;20043;-80
2021/10/23 02:41:52;;;;;;;11.77;2.00;;;;;;;4.23;100.00;101015.81;4915004;29;20380;-80
2021/10/23 02:44:18;;;;;;;6.97;1.73;;;;;;;4.30;100.00;101016.78;4923134;29;20048;-81
2021/10/23 02:46:45;;;;;;;8.30;1.73;;;;;;;4.21;100.00;101014.94;4927557;29;20054;-80
2021/10/23 02:49:12;;;;;;;6.00;1.93;;;;;;;4.22;100.00;101019.31;4955597;29;20039;-80
2021/10/23 02:51:39;;;;;;;8.97;1.97;;;;;;;4.12;100.00;101026.19;4925369;29;20048;-80
2021/10/23 02:54:06;;;;;;;10.40;2.40;;;;;;;4.28;100.00;101013.25;4920903;29;20502;-80
2021/10/23 02:56:32;;;;;;;6.03;2.23;;;;;;;4.29;100.00;101018.53;4935142;29;20095;-80
2021/10/23 02:58:59;;;;;;;8.40;3.10;;;;;;;4.20;100.00;101027.13;4900591;29;20050;-80
2021/10/23 03:01:26;;;;;;;7.83;2.07;;;;;;;4.15;100.00;101030.56;4932152;29;20078;-80
2021/10/23 03:03:54;;;;;;;10.27;2.63;;;;;;;4.22;100.00;101030.63;4938033;29;20039;-80
2021/10/23 03:06:20;;;;;;;6.13;2.23;;;;;;;4.26;100.00;101015.84;4949561;29;20039;-80
2021/10/23 03:08:47;;;;;;;4.50;1.80;;;;;;;4.25;100.00;101027.19;4938925;29;20066;-80
2021/10/23 03:11:14;;;;;;;5.33;1.80;;;;;;;4.20;100.00;101035.00;4924303;29;20044;-81
2021/10/23 03:13:42;;;;;;;6.00;1.87;;;;;;;4.17;100.00;101041.91;4939799;29;20039;-80
2021/10/23 03:16:09;;;;;;;7.23;2.30;;;;;;;4.27;100.00;101042.88;4925977;29;20043;-80
2021/10/23 03:18:37;;;;;;;5.13;1.90;;;;;;;4.26;100.00;101034.16;4936961;29;20458;-80
2021/10/23 03:21:04;;;;;;;5.90;2.07;;;;;;;4.18;100.00;101047.16;4931032;29;20043;-80
2021/10/23 03:23:31;;;;;;;8.60;1.90;;;;;;;4.19;100.00;101045.41;4945742;29;20039;-80
2021/10/23 03:25:58;;;;;;;11.23;1.57;;;;;;;4.09;100.00;101044.41;4908500;29;20051;-81
2021/10/23 03:28:25;;;;;;;7.17;1.77;;;;;;;4.14;100.00;101057.56;4925312;29;20048;-80
2021/10/23 03:30:52;;;;;;;6.77;2.27;;;;;;;4.12;100.00;101064.47;4928994;29;20059;-80
2021/10/23 03:33:19;;;;;;;5.10;2.20;;;;;;;4.00;100.00;101062.63;4940457;29;20047;-80
2021/10/23 03:35:46;;;;;;;4.63;2.00;;;;;;;3.99;100.00;101067.81;4922778;29;20094;-77
2021/10/23 03:38:12;;;;;;;8.73;1.60;;;;;;;4.05;100.00;101070.53;4938856;29;20051;-79
2021/10/23 03:40:39;;;;;;;6.00;1.90;;;;;;;4.01;100.00;101076.56;4930933;29;20039;-80
2021/10/23 03:43:06;;;;;;;6.47;2.17;;;;;;;3.93;100.00;101087.78;4907605;29;20126;-80
2021/10/23 03:45:33;;;;;;;7.47;2.20;;;;;;;4.06;100.00;101082.75;4919480;29;20054;-80
2021/10/23 03:48:00;;;;;;;9.23;1.93;;;;;;;4.10;100.00;101085.41;4933440;29;20043;-80
2021/10/23 03:50:26;;;;;;;5.00;2.37;;;;;;;3.98;100.00;101087.00;4946334;29;20039;-78
2021/10/23 03:52:55;;;;;;;9.83;2.43;;;;;;;3.97;100.00;101086.13;4907847;29;20043;-78
2021/10/23 03:55:22;;;;;;;6.47;1.80;;;;;;;3.86;100.00;101085.94;4907432;29;20102;-79
2021/10/23 03:57:48;;;;;;;7.80;2.17;;;;;;;3.92;100.00;101090.38;4938029;29;20130;-78
2021/10/23 04:00:15;;;;;;;9.40;3.60;;;;;;;3.93;100.00;101099.97;4938511;29;20078;-79
2021/10/23 04:02:42;;;;;;;9.90;2.00;;;;;;;3.88;100.00;101093.84;4931460;29;20064;-78
2021/10/23 04:05:09;;;;;;;8.10;2.07;;;;;;;3.98;100.00;101102.66;4923167;29;20549;-78
2021/10/23 04:07:36;;;;;;;10.27;1.93;;;;;;;3.93;100.00;101100.84;4924461;29;20039;-79
2021/10/23 04:10:05;;;;;;;7.77;2.30;;;;;;;3.91;100.00;101094.75;4903767;29;20114;-78
2021/10/23 04:12:31;;;;;;;5.40;1.83;;;;;;;3.94;100.00;101094.75;4942374;29;20122;-80
2021/10/23 04:15:00;;;;;;;8.77;1.93;;;;;;;4.06;100.00;101101.03;4950509;29;20051;-80
2021/10/23 04:17:27;;;;;;;11.10;2.20;;;;;;;4.02;100.00;101101.84;4917634;29;20054;-79
2021/10/23 04:19:54;;;;;;;6.13;1.90;;;;;;;4.04;100.00;101114.09;4923133;29;20135;-79
2021/10/23 04:22:21;;;;;;;7.10;2.37;;;;;;;4.01;100.00;101102.69;4945767;29;20070;-79
2021/10/23 04:24:51;;;;;;;7.13;2.67;;;;;;;4.00;100.00;101090.50;4908938;29;20510;-79
2021/10/23 04:27:19;;;;;;;4.67;2.10;;;;;;;4.03;100.00;101103.59;4925363;29;20098;-80
2021/10/23 04:29:46;;;;;;;7.67;2.00;;;;;;;4.06;100.00;101101.03;4920821;29;20046;-80
2021/10/23 04:32:13;;;;;;;9.17;2.53;;;;;;;4.09;100.00;101115.00;4937141;29;20048;-79
2021/10/23 04:34:41;;;;;;;9.27;3.47;;;;;;;4.06;100.00;101116.72;4907184;29;20053;-79
2021/10/23 04:37:08;;;;;;;6.17;2.00;;;;;;;3.98;100.00;101110.50;4938737;29;20113;-79
2021/10/23 04:39:34;;;;;;;5.83;2.30;;;;;;;3.96;100.00;101120.97;4906209;29;20040;-78
2021/10/23 04:42:05;;;;;;;6.70;2.47;;;;;;;4.05;100.00;101120.19;4940695;29;20118;-78
2021/10/23 04:44:31;;;;;;;4.40;2.00;;;;;;;4.04;100.00;101118.44;4923957;29;20047;-78
2021/10/23 04:46:58;;;;;;;7.03;1.87;;;;;;;3.93;100.00;101119.16;4924949;29;20549;-79
2021/10/23 04:49:25;;;;;;;10.43;3.00;;;;;;;3.93;100.00;101126.13;4913458;29;20059;-79
2021/10/23 04:51:55;;;;;;;6.37;1.87;;;;;;;3.88;100.00;101120.84;4955218;28;20062;-79
2021/10/23 04:54:22;;;;;;;9.43;3.20;;;;;;;3.99;100.00;101122.72;4913011;29;20052;-79
2021/10/23 04:56:48;;;;;;;6.43;1.87;;;;;;;3.93;100.00;101128.75;4923252;29;20046;-79
2021/10/23 04:59:18;;;;;;;7.40;2.30;;;;;;;4.11;100.00;101126.38;4938482;29;20039;-79
2021/10/23 05:01:44;;;;;;;6.47;2.70;;;;;;;4.11;100.00;101131.59;4939772;29;20063;-79
2021/10/23 05:04:11;;;;;;;8.03;1.90;;;;;;;4.10;100.00;101135.06;4940710;29;20082;-78
2021/10/23 05:06:38;;;;;;;9.40;2.00;;;;;;;3.98;100.00;101134.91;4903662;29;20067;-78
2021/10/23 05:09:05;;;;;;;5.80;1.80;;;;;;;4.06;100.00;101145.50;4931887;29;20072;-78
2021/10/23 05:11:32;;;;;;;8.87;2.33;;;;;;;3.95;100.00;101151.44;4905544;29;20035;-79
2021/10/23 05:13:59;;;;;;;8.67;2.30;;;;;;;3.92;100.00;101142.66;4942009;29;20050;-79
2021/10/23 05:16:25;;;;;;;5.40;2.10;;;;;;;3.93;100.00;101147.03;4923231;29;20184;-79
2021/10/23 05:18:52;;;;;;;7.33;2.00;;;;;;;3.95;100.00;101143.59;4918540;29;20561;-79
2021/10/23 05:21:19;;;;;;;8.83;2.27;;;;;;;4.01;100.00;101144.53;4914526;29;20040;-80
2021/10/23 05:23:47;;;;;;;4.93;2.30;;;;;;;4.00;100.00;101145.38;4951207;29;20410;-80
2021/10/23 05:26:14;;;;;;;8.93;2.60;;;;;;;4.04;100.00;101139.38;4919576;29;20434;-80
2021/10/23 05:28:41;;;;;;;7.27;2.10;;;;;;;4.08;100.00;101156.84;4915329;29;20414;-80
2021/10/23 05:31:08;;;;;;;7.23;2.20;;;;;;;4.09;100.00;101148.13;4912547;29;20718;-80
2021/10/23 05:33:34;;;;;;;6.83;2.60;;;;;;;4.00;100.00;101168.91;4948097;29;20047;-80
2021/10/23 05:36:01;;;;;;;8.63;2.67;;;;;;;4.06;100.00;101171.63;4926906;29;20087;-80
2021/10/23 05:38:28;;;;;;;8.40;3.27;;;;;;;4.02;100.00;101172.44;4934209;29;20055;-80
2021/10/23 05:40:55;;;;;;;12.80;3.20;;;;;;;4.04;100.00;101175.97;4951845;29;20035;-81
2021/10/23 05:43:22;;;;;;;7.83;2.30;;;;;;;4.00;100.00;101182.00;4908827;29;20043;-80
2021/10/23 05:45:48;;;;;;;7.00;2.50;;;;;;;3.99;100.00;101185.47;4919400;29;20604;-80
2021/10/23 05:48:18;;;;;;;8.90;1.90;;;;;;;3.98;100.00;101187.22;4901378;29;20051;-80
2021/10/23 05:50:45;;;;;;;10.33;2.10;;;;;;;3.97;100.00;101195.91;4922644;29;20039;-81
2021/10/23 05:53:12;;;;;;;3.23;1.70;;;;;;;3.98;100.00;101187.22;4913643;29;20044;-79
2021/10/23 05:55:38;;;;;;;9.60;2.00;;;;;;;3.98;100.00;101196.78;4925446;29;20143;-79
2021/10/23 05:58:05;;;;;;;7.70;2.00;;;;;;;3.96;100.00;101204.59;4918906;29;20426;-79
2021/10/23 06:00:36;;;;;;;9.33;2.73;;;;;;;3.94;100.00;101198.44;4934922;29;20040;-79
2021/10/23 06:03:03;;;;;;;6.87;2.97;;;;;;;4.01;100.00;101210.75;4919340;29;20502;-79
2021/10/23 06:05:32;;;;;;;8.70;2.30;;;;;;;3.95;100.00;101208.97;4933917;29;20043;-79
2021/10/23 06:07:59;;;;;;;8.80;3.27;;;;;;;4.02;100.00;101214.25;4935469;29;20051;-79
2021/10/23 06:10:26;;;;;;;6.93;2.83;;;;;;;4.03;100.00;101218.63;4934322;28;20058;-79
2021/10/23 06:12:53;;;;;;;7.23;2.77;;;;;;;3.97;100.00;101221.19;4919911;29;20043;-79
2021/10/23 06:15:19;;;;;;;6.37;2.10;;;;;;;4.06;100.00;101232.66;4938545;29;20130;-79
2021/10/23 06:17:46;;;;;;;9.17;2.63;;;;;;;4.01;100.00;101236.03;4932647;29;20126;-80
2021/10/23 06:20:13;;;;;;;9.93;2.67;;;;;;;4.03;100.00;101236.94;4937462;28;20070;-80
2021/10/23 06:22:51;;;;;;;6.13;1.90;;;;;;;4.04;100.00;101243.94;4921423;29;20524;-79
2021/10/23 06:25:18;;;;;;;7.80;2.43;;;;;;;4.08;100.00;101243.13;4920434;29;20188;-79
2021/10/23 06:27:45;;;;;;;6.00;2.30;;;;;;;4.10;100.00;101244.00;4943402;29;20043;-79
2021/10/23 06:30:16;;;;;;;11.30;3.30;;;;;;;4.13;100.00;101236.25;4944822;29;20047;-79
2021/10/23 06:32:48;;;;;;;9.30;2.90;;;;;;;4.20;100.00;101245.91;4942170;29;20049;-79
2021/10/23 06:35:15;;;;;;;11.07;3.00;;;;;;;4.13;100.00;101249.31;4922149;29;20066;-79
2021/10/23 06:37:42;;;;;;;6.67;2.27;;;;;;;4.21;100.00;101247.69;4940998;29;20050;-79
2021/10/23 06:40:09;;;;;;;6.43;1.83;;;;;;;4.21;100.00;101252.91;4941865;29;20061;-79
2021/10/23 06:42:39;;;;;;;6.90;2.57;;;;;;;4.27;100.00;101267.81;4911325;29;1117365;-78
2021/10/23 06:45:12;;;;;;;7.23;2.43;;;;;;;4.25;100.00;101262.56;4939189;29;20106;-78
2021/10/23 06:47:39;;;;;;;4.53;1.70;;;;;;;4.33;100.00;101262.69;4920081;29;20380;-79
2021/10/23 06:50:08;;;;;;;7.87;2.30;;;;;;;4.27;100.00;101263.44;4955957;29;20047;-79
2021/10/23 06:52:35;;;;;;;7.70;2.97;;;;;;;4.32;100.00;101267.03;4936133;29;20514;-79
2021/10/23 06:55:05;;;;;;;6.90;2.43;;;;;;;4.35;100.00;101277.53;4920473;29;20043;-79
2021/10/23 06:57:34;;;;;;;8.17;2.30;;;;;;;4.31;100.00;101280.97;4907713;29;20043;-79
2021/10/23 07:00:06;;;;;;;15.77;6.53;;;;;;;4.36;100.00;101292.34;4943295;29;20122;-80
2021/10/23 07:02:37;;;;;;;11.40;5.80;;;;;;;4.51;100.00;101295.22;4907234;29;20067;-79
2021/10/23 07:05:09;;;;;;;8.10;3.33;;;;;;;4.50;100.00;101287.34;4941515;29;20055;-80
2021/10/23 07:07:35;;;;;;;8.03;3.20;;;;;;;4.59;100.00;101302.28;4943477;29;20065;-80
2021/10/23 07:10:04;;;;;;;8.57;5.27;;;;;;;4.82;100.00;101300.00;4940986;29;20035;-80
2021/10/23 07:12:30;;;;;;;36.93;33.90;;;;;;;4.93;100.00;101317.59;4921245;28;20046;-81
2021/10/23 07:15:01;;;;;;;84.37;77.73;;;;;;;5.02;100.00;101320.31;4915771;29;20058;-80
2021/10/23 07:17:27;;;;;;;13.37;10.80;;;;;;;5.16;100.00;101320.50;4928113;29;20070;-81
2021/10/23 07:19:55;;;;;;;10.97;3.67;;;;;;;5.26;100.00;101317.13;4944654;29;20055;-80
2021/10/23 07:22:23;;;;;;;7.57;2.80;;;;;;;5.33;100.00;101329.44;4943952;29;20042;-80
2021/10/23 07:24:50;;;;;;;7.80;2.10;;;;;;;5.33;100.00;101341.66;4937317;29;20098;-79
2021/10/23 07:27:17;;;;;;;8.20;3.13;;;;;;;5.40;100.00;101340.88;4934857;29;20098;-80
2021/10/23 07:29:46;;;;;;;11.53;3.60;;;;;;;5.37;100.00;101344.31;4944847;29;20067;-80
2021/10/23 07:32:13;;;;;;;7.40;3.33;;;;;;;5.43;100.00;101347.88;4938423;29;20266;-80
2021/10/23 07:34:40;;;;;;;9.13;2.43;;;;;;;5.49;100.00;101347.97;4928047;29;20082;-80
2021/10/23 07:37:07;;;;;;;7.33;2.20;;;;;;;5.53;100.00;101352.38;4950951;29;20052;-80
2021/10/23 07:39:34;;;;;;;8.00;1.93;;;;;;;5.49;100.00;101355.81;4929124;29;20055;-79
2021/10/23 07:42:02;;;;;;;7.30;2.33;;;;;;;5.64;100.00;101356.88;4924477;29;20425;-80
2021/10/23 07:44:31;;;;;;;6.83;2.30;;;;;;;5.68;100.00;101359.53;4923461;29;20051;-79
2021/10/23 07:46:58;;;;;;;6.43;2.80;;;;;;;5.82;100.00;101364.06;4939165;29;20092;-79
2021/10/23 07:49:24;;;;;;;5.87;2.60;;;;;;;5.97;100.00;101371.25;4930420;29;20039;-79
2021/10/23 07:51:51;;;;;;;8.37;2.03;;;;;;;6.08;100.00;101379.19;4910435;29;20107;-79
2021/10/23 07:54:18;;;;;;;8.23;2.20;;;;;;;6.13;100.00;101380.97;4907146;29;20043;-79
2021/10/23 07:56:45;;;;;;;11.30;2.50;;;;;;;6.19;100.00;101393.28;4941302;29;20561;-81
2021/10/23 07:59:14;;;;;;;7.23;2.40;;;;;;;6.16;100.00;101391.53;4919385;29;20051;-81
2021/10/23 08:01:41;;;;;;;6.70;1.77;;;;;;;6.17;100.00;101385.41;4926606;29;20047;-82
2021/10/23 08:04:09;;;;;;;8.80;3.27;;;;;;;6.28;99.27;101392.47;4925885;29;20051;-81
2021/10/23 08:06:36;;;;;;;9.13;2.40;;;;;;;6.28;100.00;101384.63;4943170;29;20095;-79
2021/10/23 08:09:11;;;;;;;5.20;2.47;;;;;;;6.37;100.00;101389.94;4935334;29;20039;-80
2021/10/23 08:11:43;;;;;;;12.57;3.30;;;;;;;6.37;100.00;101390.81;4938753;28;20047;-82
2021/10/23 08:14:17;;;;;;;6.20;2.50;;;;;;;6.43;99.25;101395.25;4924170;29;20054;-80
2021/10/23 08:16:44;;;;;;;7.93;1.90;;;;;;;6.53;96.61;101410.19;4927529;29;20059;-81
2021/10/23 08:19:11;;;;;;;6.50;2.80;;;;;;;6.54;97.70;101404.06;4929576;29;20047;-79
2021/10/23 08:21:39;;;;;;;6.20;2.70;;;;;;;6.52;99.47;101410.19;4914073;29;20058;-80
2021/10/23 08:24:07;;;;;;;37.23;20.20;;;;;;;6.54;99.66;101419.81;4913352;29;20490;-80
2021/10/23 08:26:35;;;;;;;8.77;3.50;;;;;;;6.55;98.58;101418.09;4930938;28;20057;-80
2021/10/23 08:29:02;;;;;;;6.67;2.53;;;;;;;6.69;98.08;101425.22;4915321;29;20487;-80
2021/10/23 08:31:32;;;;;;;15.20;4.43;;;;;;;6.85;98.20;101420.94;4926971;29;20110;-80
2021/10/23 08:34:00;;;;;;;6.00;2.40;;;;;;;6.90;96.20;101434.13;4928741;29;20059;-80
2021/10/23 08:36:29;;;;;;;8.23;3.63;;;;;;;6.92;96.86;101430.63;4934170;29;20043;-79
2021/10/23 08:38:57;;;;;;;5.00;2.20;;;;;;;6.92;96.76;101435.88;4944612;29;20078;-78
2021/10/23 08:41:24;;;;;;;9.43;2.67;;;;;;;7.07;97.42;101437.75;4932248;29;20090;-80
2021/10/23 08:43:52;;;;;;;10.17;3.27;;;;;;;7.27;94.80;101446.59;4944567;29;20039;-80
2021/10/23 08:46:23;;;;;;;7.37;2.90;;;;;;;7.36;95.49;101448.41;4916389;29;20051;-80
2021/10/23 08:48:55;;;;;;;7.97;2.20;;;;;;;7.44;94.00;101448.44;4911948;29;20493;-80
2021/10/23 08:51:23;;;;;;;8.57;2.87;;;;;;;7.60;91.14;101455.53;4910640;29;20062;-79
2021/10/23 08:53:52;;;;;;;5.60;1.90;;;;;;;7.68;91.38;101464.34;4929035;29;20047;-80
2021/10/23 08:56:23;;;;;;;4.93;2.20;;;;;;;7.72;88.82;101455.56;4936706;29;20047;-80
2021/10/23 08:58:52;;;;;;;9.23;2.60;;;;;;;7.89;89.39;101448.63;4941684;29;20069;-80
2021/10/23 09:01:24;;;;;;;6.32;2.40;;;;;;;7.98;89.25;101454.78;4932698;29;20039;-81
2021/10/23 09:03:55;;;;;;;10.10;2.27;;;;;;;8.12;88.35;101460.97;4911259;29;20047;-79
2021/10/23 09:06:33;;;;;;;8.27;2.20;;;;;;;8.38;87.47;101471.59;4932399;29;20550;-80
2021/10/23 09:09:08;;;;;;;4.85;1.80;;;;;;;8.44;86.63;101468.97;4959538;29;20484;-79
2021/10/23 09:11:40;;;;;;;5.57;1.85;;;;;;;8.51;84.61;101478.63;4936280;29;20150;-80
2021/10/23 09:14:39;;;;;;;7.65;2.15;;;;;;;8.66;87.51;101478.66;4908839;29;20054;-80
2021/10/23 09:17:12;;;;;;;5.70;2.50;;;;;;;8.74;83.28;101479.53;4943609;29;20039;-81
2021/10/23 09:19:48;;;;;;;4.90;2.33;;;;;;;8.66;83.17;101490.91;4928232;29;20051;-79
2021/10/23 09:22:28;;;;;;;6.72;2.85;;;;;;;8.81;82.93;101490.94;4928148;29;20062;-80
2021/10/23 09:25:11;;;;;;;7.90;3.38;;;;;;;9.07;84.15;101484.75;4913772;29;20047;-81
2021/10/23 09:28:05;;;;;;;9.02;2.15;;;;;;;9.10;81.54;101498.84;4938255;29;20043;-81
2021/10/23 09:30:41;;;;;;;10.27;3.30;;;;;;;9.29;82.86;101510.22;4922377;29;20122;-81
2021/10/23 09:33:21;;;;;;;11.48;2.30;;;;;;;9.25;79.01;101508.50;4900773;29;20039;-80
2021/10/23 09:35:55;;;;;;;7.28;2.92;;;;;;;9.35;80.38;101515.50;4921740;29;20041;-80
2021/10/23 09:38:33;;;;;;;7.22;3.17;;;;;;;9.65;81.09;101514.53;4950850;29;20043;-81
2021/10/23 09:41:25;;;;;;;6.97;2.25;;;;;;;9.80;79.01;101525.03;4925699;29;20043;-81
2021/10/23 09:44:14;;;;;;;4.75;2.20;;;;;;;9.67;78.54;101530.34;4926538;29;20039;-81
2021/10/23 09:46:54;;;;;;;7.28;1.90;;;;;;;9.50;76.79;101551.50;4924261;29;20064;-80
2021/10/23 09:49:25;;;;;;;8.75;2.08;;;;;;;9.71;76.42;101546.19;4920032;29;20036;-80
2021/10/23 09:52:08;;;;;;;7.38;2.33;;;;;;;9.95;76.46;101545.22;4919143;29;20494;-80
2021/10/23 09:54:36;;;;;;;8.63;2.83;;;;;;;10.28;75.03;101543.38;4914391;29;20044;-80
2021/10/23 09:57:11;;;;;;;9.70;2.00;;;;;;;10.34;74.89;101544.22;4935210;29;20102;-80
2021/10/23 09:59:40;;;;;;;7.15;2.30;;;;;;;10.25;75.24;101553.94;4920620;29;20044;-82
2021/10/23 10:02:07;;;;;;;7.28;2.78;;;;;;;10.35;75.02;101548.63;4908369;29;20042;-82
2021/10/23 10:04:35;;;;;;;9.77;2.60;;;;;;;10.64;75.55;101558.13;4920759;29;20102;-82
2021/10/23 10:07:04;;;;;;;6.57;2.00;;;;;;;10.70;73.65;101547.53;4948012;29;20082;-81
2021/10/23 10:09:31;;;;;;;7.60;2.65;;;;;;;10.66;72.34;101549.28;4916912;29;20044;-80
2021/10/23 10:11:58;;;;;;;5.97;2.20;;;;;;;10.53;72.53;101557.31;4910550;29;20081;-81
2021/10/23 10:14:35;;;;;;;4.10;1.83;;;;;;;10.44;73.64;101555.59;4938033;29;20086;-80
2021/10/23 10:17:02;;;;;;;16.13;3.33;;;;;;;10.50;72.67;101559.94;4926569;28;20846;-82
2021/10/23 10:19:29;;;;;;;6.95;2.35;;;;;;;10.51;68.99;101567.00;4922489;29;20098;-81
2021/10/23 10:22:06;;;;;;;9.70;2.53;;;;;;;10.70;71.20;101558.97;4935033;29;20039;-80
2021/10/23 10:24:35;;;;;;;8.52;2.00;;;;;;;10.71;70.75;101558.06;4921289;29;20043;-82
2021/10/23 10:27:17;;;;;;;9.10;2.88;;;;;;;10.77;70.09;101564.22;4923801;29;20106;-80
2021/10/23 10:29:50;;;;;;;4.70;2.20;;;;;;;10.80;68.03;101559.78;4905206;29;20044;-83
2021/10/23 10:32:34;;;;;;;8.57;2.78;;;;;;;10.74;71.24;101574.78;4923896;29;20039;-81
2021/10/23 10:43:12;;;;;;;7.10;2.95;;;;;;;10.58;68.12;101572.22;4942374;29;20055;-80
2021/10/23 10:45:46;;;;;;;9.68;2.03;;;;;;;10.88;69.75;101578.22;4914373;29;20057;-81
2021/10/23 10:48:21;;;;;;;7.95;1.98;;;;;;;10.91;66.57;101579.06;4944071;29;20138;-80
2021/10/23 10:50:53;;;;;;;5.57;2.30;;;;;;;10.90;69.38;101589.66;4937232;28;20048;-80
2021/10/23 10:53:24;;;;;;;6.82;2.15;;;;;;;10.84;67.87;101605.56;4936711;28;20035;-81
2021/10/23 10:56:08;;;;;;;5.53;1.90;;;;;;;10.95;70.06;101596.69;4934842;29;20054;-80
2021/10/23 10:58:49;;;;;;;10.30;2.00;;;;;;;10.96;67.76;101593.16;4936804;29;20043;-81
2021/10/23 11:01:20;;;;;;;4.97;2.28;;;;;;;10.86;68.67;101603.81;4941413;28;20062;-81
2021/10/23 11:03:51;;;;;;;7.53;3.03;;;;;;;10.78;67.05;101608.25;4944543;29;20040;-81
2021/10/23 11:06:30;;;;;;;5.70;1.92;;;;;;;10.70;66.71;101610.94;4934116;28;20050;-81
2021/10/23 11:09:16;;;;;;;7.35;2.88;;;;;;;10.63;67.73;101610.09;4943764;29;20051;-80
2021/10/23 11:12:28;;;;;;;5.57;1.73;;;;;;;10.64;68.19;101619.78;4941995;29;20039;-82
2021/10/23 11:14:59;;;;;;;4.55;2.17;;;;;;;10.78;69.16;101630.28;4960648;29;20502;-80
2021/10/23 11:17:27;;;;;;;7.32;2.50;;;;;;;10.79;66.99;101625.88;4914993;29;20707;-81
2021/10/23 11:19:59;;;;;;;5.00;1.85;;;;;;;10.70;66.71;101616.22;4918042;29;20117;-80
2021/10/23 11:22:34;;;;;;;8.02;2.72;;;;;;;10.89;65.99;101628.44;4931052;29;20046;-80
2021/10/23 11:25:06;;;;;;;6.03;2.22;;;;;;;11.25;65.73;101626.41;4933150;29;20059;-81
2021/10/23 11:27:49;;;;;;;5.65;2.13;;;;;;;11.30;65.44;101631.69;4925658;29;20074;-81
2021/10/23 11:30:23;;;;;;;7.40;1.98;;;;;;;11.25;64.28;101643.16;4906531;29;20051;-80
2021/10/23 11:33:02;;;;;;;4.35;1.90;;;;;;;11.10;65.01;101642.41;4929331;29;20039;-80
2021/10/23 11:35:36;;;;;;;7.28;2.03;;;;;;;10.79;62.62;101637.31;4941483;29;20040;-79
2021/10/23 11:38:18;;;;;;;4.83;1.87;;;;;;;10.76;65.07;101641.72;4900762;29;20054;-80
2021/10/23 11:40:55;;;;;;;6.35;1.67;;;;;;;10.81;65.36;101650.53;4957257;29;20050;-79
2021/10/23 11:43:41;;;;;;;7.05;2.10;;;;;;;10.86;67.08;101660.19;4944497;29;20051;-81